Flight Track Log - Related Links

Times and Time Zones

All times are in EST time to prevent confusion due to time zone crossing. See the SWA1813 flight status page for this flight to view local times or setup timezone preferences in your user account.

Time Position Orientation Groundspeed Altitude Reporting Facility
EST Latitude Longitude Course Direction KTS MPH feet Rate Location/Type
Sun 09:08:56 AM 30.0011 -90.2481 12° North 135 155 500  Level Houston Center
Sun 09:09:56 AM 30.0486 -90.2367 12° North 187 215 2,900 2,564 Climbing Houston Center
Sun 09:10:53 AM 30.0939 -90.2425 354° North 213 245 5,500 3,153 Climbing Houston Center
Sun 09:11:54 AM 30.1350 -90.2986 310° West 223 257 9,100 2,607 Climbing Houston Center
Sun 09:12:55 AM 30.1939 -90.3758 311° West 265 305 10,800 2,262 Climbing Houston Center
Sun 09:13:56 AM 30.2622 -90.4594 313° West 347 399 13,700 2,902 Climbing Houston Center
Sun 09:14:57 AM 30.3331 -90.5450 314° West 363 418 16,700 2,557 Climbing Houston Center
Sun 09:15:58 AM 30.3958 -90.6417 307° West 373 429 18,900 2,705 Climbing Houston Center
Sun 09:16:59 AM 30.4531 -90.7453 303° West 381 438 22,200 2,902 Climbing Houston Center
Sun 09:18:00 AM 30.5106 -90.8447 304° West 374 430 24,800 2,164 Climbing Houston Center
Sun 09:19:01 AM 30.5683 -90.9458 304° West 375 432 26,600 1,180 Climbing Houston Center
Sun 09:20:02 AM 30.6250 -91.0600 300° West 405 466 27,200 1,220 Climbing Houston Center
Sun 09:21:04 AM 30.6833 -91.1803 299° West 425 489 29,100 1,854 Climbing Houston Center
Sun 09:22:05 AM 30.7483 -91.3128 300° West 421 484 31,000 1,918 Climbing Houston Center
Sun 09:23:06 AM 30.8047 -91.4306 299° West 419 482 33,000 1,869 Climbing Houston Center
Sun 09:24:07 AM 30.8611 -91.5439 300° West 408 470 34,800 1,475 Climbing Houston Center
Sun 09:25:08 AM 30.9139 -91.6564 299° West 399 459 36,000 590 Climbing Houston Center
Sun 09:26:09 AM 30.9700 -91.7681 300° West 400 460 36,000 136 Level Houston Center
Sun 09:28:05 AM 31.1161 -91.9653 311° West 404 465 36,400 508 Climbing Fort Worth Center
Sun 09:29:06 AM 31.1894 -92.0625 311° West 402 463 37,500 787 Climbing Fort Worth Center
Sun 09:30:07 AM 31.2481 -92.1681 303° West 390 449 38,000 246 Climbing Fort Worth Center
Sun 09:31:08 AM 31.3017 -92.2844 298° West 386 444 38,000  Level Fort Worth Center
Sun 09:32:09 AM 31.3531 -92.3936 299° West 383 441 38,000  Level Fort Worth Center
Sun 09:33:10 AM 31.4039 -92.5036 298° West 385 443 38,000  Level Fort Worth Center
Sun 09:34:19 AM 31.4625 -92.6319 298° West 384 442 38,000  Level Houston Center
Sun 09:35:20 AM 31.5111 -92.7397 298° West 378 435 38,000  Level Houston Center
Sun 09:36:21 AM 31.5597 -92.8467 298° West 374 430 38,000  Level Houston Center
Sun 09:37:22 AM 31.6086 -92.9547 298° West 376 433 38,000  Level Houston Center
Sun 09:38:23 AM 31.6578 -93.0628 298° West 376 433 38,000  Level Houston Center
Sun 09:39:24 AM 31.7075 -93.1706 298° West 377 434 38,000  Level Houston Center
Sun 09:40:26 AM 31.7622 -93.2917 298° West 379 436 38,000  Level Houston Center
Sun 09:41:27 AM 31.8114 -93.4011 298° West 379 436 38,000  Level Houston Center
Sun 09:42:28 AM 31.8606 -93.5103 298° West 379 436 38,000  Level Houston Center
Sun 09:43:29 AM 31.9086 -93.6200 297° West 378 435 38,000  Level Houston Center
Sun 09:44:30 AM 31.9575 -93.7292 298° West 377 434 38,000  Level Houston Center
Sun 09:45:31 AM 32.0061 -93.8378 298° West 376 433 38,000  Level Houston Center
Sun 09:46:25 AM 32.0522 -93.9386 298° West 370 426 38,000  Level Fort Worth Center
Sun 09:47:26 AM 32.1011 -94.0481 298° West 375 432 38,000  Level Fort Worth Center
Sun 09:48:27 AM 32.1489 -94.1547 298° West 372 428 38,000  Level Fort Worth Center
Sun 09:49:28 AM 32.1953 -94.2608 297° West 371 427 38,000  Level Fort Worth Center
Sun 09:50:30 AM 32.2411 -94.3708 296° West 372 428 38,000  Level Fort Worth Center
Sun 09:51:31 AM 32.2983 -94.5006 298° West 371 427 38,000  Level Fort Worth Center
Sun 09:52:32 AM 32.3461 -94.6103 297° West 373 429 38,000  Level Fort Worth Center
Sun 09:53:33 AM 32.3928 -94.7183 297° West 370 426 38,000  Level Fort Worth Center
Sun 09:54:35 AM 32.4408 -94.8281 297° West 372 428 38,000  Level Fort Worth Center
Sun 09:55:36 AM 32.4881 -94.9383 297° West 374 430 38,000  Level Fort Worth Center
Sun 09:56:37 AM 32.5239 -95.0519 291° West 371 427 38,000  Level Fort Worth Center
Sun 09:57:39 AM 32.5544 -95.1686 287° West 369 425 38,000  Level Fort Worth Center
Sun 09:58:40 AM 32.5869 -95.3008 286° West 365 420 38,000  Level Fort Worth Center
Sun 09:59:41 AM 32.6153 -95.4158 286° West 362 417 38,000  Level Fort Worth Center
Sun 10:00:42 AM 32.6431 -95.5319 286° West 364 419 38,000  Level Fort Worth Center
Sun 10:01:44 AM 32.6714 -95.6469 286° West 364 419 38,000  Level Fort Worth Center
Sun 10:02:45 AM 32.7006 -95.7628 287° West 364 419 38,000  Level Fort Worth Center
Sun 10:03:46 AM 32.7286 -95.8794 286° West 367 422 38,000  Level Fort Worth Center
Sun 10:04:47 AM 32.7581 -95.9961 287° West 367 422 38,000  Level Fort Worth Center
Sun 10:05:49 AM 32.7861 -96.1142 286° West 371 427 38,000  Level Fort Worth Center
Sun 10:06:50 AM 32.8139 -96.2322 286° West 372 428 38,000  Level Fort Worth Center
Sun 10:07:51 AM 32.8489 -96.3733 286° West 374 430 38,000  Level Fort Worth Center
Sun 10:08:52 AM 32.8761 -96.4925 285° West 375 432 38,000  Level Fort Worth Center
Sun 10:09:54 AM 32.9058 -96.6103 287° West 369 425 38,000  Level Fort Worth Center
Sun 10:10:55 AM 32.9333 -96.7289 285° West 373 429 38,000  Level Fort Worth Center
Sun 10:11:56 AM 32.9608 -96.8492 285° West 377 434 38,000  Level Fort Worth Center
Sun 10:12:57 AM 32.9892 -96.9697 286° West 379 436 38,000  Level Fort Worth Center
Sun 10:13:59 AM 33.0178 -97.0881 286° West 377 434 38,000  Level Fort Worth Center
Sun 10:15:00 AM 33.0458 -97.2167 285° West 386 444 38,000  Level Fort Worth Center
Sun 10:16:01 AM 33.0778 -97.3508 286° West 384 442 38,000  Level Fort Worth Center
Sun 10:17:02 AM 33.1053 -97.4717 285° West 383 441 38,000  Level Fort Worth Center
Sun 10:18:04 AM 33.1317 -97.5919 285° West 378 435 38,000  Level Fort Worth Center
Sun 10:19:05 AM 33.1592 -97.7131 285° West 379 436 38,000  Level Fort Worth Center
Sun 10:20:06 AM 33.1864 -97.8350 285° West 382 440 38,000  Level Fort Worth Center
Sun 10:21:07 AM 33.2133 -97.9564 285° West 381 438 38,000  Level Fort Worth Center
Sun 10:22:09 AM 33.2403 -98.0786 285° West 382 440 38,000  Level Fort Worth Center
Sun 10:23:10 AM 33.2733 -98.2267 285° West 383 441 38,000  Level Fort Worth Center
Sun 10:24:11 AM 33.3019 -98.3522 285° West 385 443 38,000  Level Fort Worth Center
Sun 10:25:12 AM 33.3272 -98.4689 285° West 385 443 38,000  Level Fort Worth Center
Sun 10:26:13 AM 33.3533 -98.5914 284° West 382 440 38,000  Level Fort Worth Center
Sun 10:27:15 AM 33.3803 -98.7136 285° West 381 438 38,000  Level Fort Worth Center
Sun 10:28:16 AM 33.4061 -98.8361 284° West 381 438 38,000  Level Fort Worth Center
Sun 10:29:17 AM 33.4336 -98.9575 285° West 379 436 38,000  Level Fort Worth Center
Sun 10:30:18 AM 33.4594 -99.0786 284° West 376 433 38,000  Level Fort Worth Center
Sun 10:31:20 AM 33.4847 -99.1994 284° West 376 433 38,000  Level Fort Worth Center
Sun 10:32:21 AM 33.5167 -99.3444 285° West 376 433 38,000  Level Fort Worth Center
Sun 10:33:22 AM 33.5419 -99.4672 284° West 378 435 38,000  Level Fort Worth Center
Sun 10:34:23 AM 33.5678 -99.5897 284° West 381 438 38,000  Level Fort Worth Center
Sun 10:35:25 AM 33.5942 -99.7131 284° West 382 440 38,000  Level Fort Worth Center
Sun 10:36:26 AM 33.6200 -99.8369 284° West 383 441 38,000  Level Fort Worth Center
Sun 10:37:27 AM 33.6453 -99.9606 284° West 383 441 38,000  Level Fort Worth Center
Sun 10:38:28 AM 33.6708 -100.0844 284° West 384 442 38,000  Level Fort Worth Center
Sun 10:39:30 AM 33.6961 -100.2089 284° West 384 442 38,000  Level Fort Worth Center
Sun 10:40:31 AM 33.7214 -100.3331 284° West 384 442 38,000  Level Fort Worth Center
Sun 10:41:32 AM 33.7511 -100.4808 284° West 381 438 38,000  Level Fort Worth Center
Sun 10:42:34 AM 33.7758 -100.6056 283° West 383 441 38,000  Level Fort Worth Center
Sun 10:43:35 AM 33.8003 -100.7303 283° West 384 442 38,000  Level Fort Worth Center
Sun 10:44:37 AM 33.8250 -100.8542 284° West 383 441 38,000  Level Fort Worth Center
Sun 10:45:38 AM 33.8500 -100.9792 284° West 384 442 38,000  Level Fort Worth Center
Sun 10:46:40 AM 33.8742 -101.1042 283° West 382 440 38,000  Level Fort Worth Center
Sun 10:47:41 AM 33.8981 -101.2300 283° West 384 442 38,000  Level Fort Worth Center
Sun 10:48:43 AM 33.9256 -101.3683 284° West 384 442 38,000  Level Fort Worth Center
Sun 10:49:44 AM 33.9519 -101.5025 283° West 384 442 38,000  Level Fort Worth Center
Sun 10:50:46 AM 33.9750 -101.6258 283° West 379 436 38,000  Level Fort Worth Center
Sun 10:51:47 AM 33.9997 -101.7544 283° West 382 440 38,000  Level Fort Worth Center
Sun 10:52:49 AM 34.0228 -101.8797 283° West 383 441 38,000  Level Fort Worth Center
Sun 10:53:50 AM 34.0458 -102.0028 283° West 380 437 38,000  Level Fort Worth Center
Sun 10:54:52 AM 34.0692 -102.1289 283° West 381 438 38,000  Level Fort Worth Center
Sun 10:55:53 AM 34.0933 -102.2558 283° West 384 442 38,000  Level Fort Worth Center
Sun 10:56:55 AM 34.1169 -102.3836 283° West 388 447 38,000  Level Fort Worth Center
Sun 10:57:31 AM 34.1303 -102.4583 282° West 385 443 38,000  Level Albuquerque Center
Sun 10:58:31 AM 34.1517 -102.5769 282° West 383 441 38,000  Level Albuquerque Center
Sun 10:59:33 AM 34.1792 -102.7267 283° West 383 441 38,000  Level Albuquerque Center
Sun 11:00:35 AM 34.2031 -102.8503 283° West 382 440 38,000  Level Albuquerque Center
Sun 11:01:35 AM 34.2256 -102.9772 282° West 386 444 38,000  Level Albuquerque Center
Sun 11:02:37 AM 34.2464 -103.1031 281° West 389 448 38,000  Level Albuquerque Center
Sun 11:03:39 AM 34.2692 -103.2319 282° West 389 448 38,000  Level Albuquerque Center
Sun 11:04:41 AM 34.2917 -103.3617 282° West 390 449 38,000  Level Albuquerque Center
Sun 11:05:42 AM 34.3189 -103.5111 282° West 387 445 38,000  Level Albuquerque Center
Sun 11:06:43 AM 34.3403 -103.6394 281° West 386 444 38,000  Level Albuquerque Center
Sun 11:07:46 AM 34.3622 -103.7675 282° West 385 443 38,000  Level Albuquerque Center
Sun 11:08:47 AM 34.3847 -103.8975 282° West 388 447 38,000  Level Albuquerque Center
Sun 11:09:47 AM 34.4069 -104.0278 282° West 391 450 38,000  Level Albuquerque Center
Sun 11:10:50 AM 34.4283 -104.1581 281° West 391 450 38,000  Level Albuquerque Center
Sun 11:11:52 AM 34.4514 -104.2900 282° West 393 452 38,000  Level Albuquerque Center
Sun 11:12:53 AM 34.4736 -104.4239 281° West 398 458 38,000  Level Albuquerque Center
Sun 11:13:53 AM 34.4956 -104.5578 281° West 399 459 38,000  Level Albuquerque Center
Sun 11:14:56 AM 34.5169 -104.6908 281° West 398 458 38,000  Level Albuquerque Center
Sun 11:15:55 AM 34.5394 -104.8269 281° West 403 464 38,000  Level Albuquerque Center
Sun 11:16:59 AM 34.5617 -104.9619 281° West 403 464 38,000  Level Albuquerque Center
Sun 11:18:00 AM 34.5833 -105.0978 281° West 405 466 38,000  Level Albuquerque Center
Sun 11:19:00 AM 34.6044 -105.2353 281° West 407 468 38,000  Level Albuquerque Center
Sun 11:20:00 AM 34.6224 -105.3577 280° West  Level FlightAware Approximate
Sun 11:20:04 AM 34.6314 -105.3961 280° West 411 473 38,000  Level Albuquerque Center
Sun 11:21:05 AM 34.6525 -105.5311 281° West 406 467 38,000  Level Albuquerque Center
Sun 11:22:06 AM 34.6731 -105.6669 280° West 405 466 38,000  Level Albuquerque Center
Sun 11:23:07 AM 34.6944 -105.8031 281° West 406 467 38,000  Level Albuquerque Center
Sun 11:24:08 AM 34.7147 -105.9431 280° West 406 467 38,000  Level Albuquerque Center
Sun 11:25:12 AM 34.7358 -106.0792 281° West 407 468 38,000  Level Albuquerque Center
Sun 11:26:12 AM 34.7561 -106.2139 280° West 405 466 38,000  Level Albuquerque Center
Sun 11:27:13 AM 34.7764 -106.3522 280° West 410 472 38,000  Level Albuquerque Center
Sun 11:28:16 AM 34.7975 -106.4883 281° West 408 470 38,000  Level Albuquerque Center
Sun 11:29:17 AM 34.8169 -106.6269 280° West 413 475 38,000  Level Albuquerque Center
Sun 11:30:19 AM 34.8372 -106.7667 280° West 416 479 38,000  Level Albuquerque Center
Sun 11:31:19 AM 34.8603 -106.9189 281° West 417 480 38,000  Level Albuquerque Center
Sun 11:32:22 AM 34.8811 -107.0706 280° West 420 483 38,000  Level Albuquerque Center
Sun 11:33:23 AM 34.9014 -107.2114 280° West 422 486 38,000  Level Albuquerque Center
Sun 11:34:25 AM 34.9211 -107.3519 280° West 420 483 38,000  Level Albuquerque Center
Sun 11:35:25 AM 34.9417 -107.5050 279° West 423 487 38,000  Level Albuquerque Center
Sun 11:36:28 AM 34.9592 -107.6272 280° West 428 493 38,000  Level Albuquerque Center
Sun 11:37:29 AM 34.9792 -107.7664 280° West 422 486 38,000  Level Albuquerque Center
Sun 11:38:31 AM 35.0006 -107.9331 279° West 415 478 38,000  Level Albuquerque Center
Sun 11:39:32 AM 35.0194 -108.0703 280° West 413 475 38,000  Level Albuquerque Center
Sun 11:40:35 AM 35.0369 -108.1994 279° West 410 472 38,000  Level Albuquerque Center
Sun 11:41:36 AM 35.0575 -108.3508 279° West 406 467 38,000  Level Albuquerque Center
Sun 11:42:38 AM 35.0744 -108.4819 279° West 408 470 38,000  Level Albuquerque Center
Sun 11:43:40 AM 35.0947 -108.6392 279° West 415 478 38,000  Level Albuquerque Center
Sun 11:44:41 AM 35.1122 -108.7731 279° West 417 480 38,000  Level Albuquerque Center
Sun 11:45:42 AM 35.1292 -108.9069 279° West 416 479 38,000  Level Albuquerque Center
Sun 11:46:44 AM 35.1494 -109.0642 279° West 418 481 38,000  Level Albuquerque Center
Sun 11:47:46 AM 35.1669 -109.1983 279° West 418 481 38,000  Level Albuquerque Center
Sun 11:48:48 AM 35.1853 -109.3561 278° West 418 481 38,000  Level Albuquerque Center
Sun 11:49:49 AM 35.2019 -109.4922 279° West 420 483 38,000  Level Albuquerque Center
Sun 11:50:50 AM 35.2186 -109.6289 279° West 423 487 38,000  Level Albuquerque Center
Sun 11:51:50 AM 35.2372 -109.7864 278° West 420 483 38,000  Level Albuquerque Center
Sun 11:52:54 AM 35.2539 -109.9239 278° West 424 488 38,000  Level Albuquerque Center
Sun 11:53:54 AM 35.2706 -110.0814 277° West 421 484 38,000  Level Albuquerque Center
Sun 11:54:55 AM 35.2861 -110.2139 278° West 415 478 38,000  Level Albuquerque Center
Sun 11:55:56 AM 35.2992 -110.3486 277° West 416 479 38,000  Level Albuquerque Center
Sun 11:57:00 AM 35.3189 -110.5092 279° West 423 487 38,000  Level Albuquerque Center
Sun 11:58:01 AM 35.3322 -110.6436 277° West 420 483 38,000  Level Albuquerque Center
Sun 11:59:02 AM 35.3511 -110.8039 278° West 423 487 38,000  Level Albuquerque Center
Sun 12:00:02 PM 35.3656 -110.9408 277° West 424 488 38,000  Level Albuquerque Center
Sun 12:01:06 PM 35.3850 -111.1047 278° West 431 496 38,000  Level Albuquerque Center
Sun 12:02:07 PM 35.3994 -111.2444 277° West 432 497 38,000  Level Albuquerque Center
Sun 12:03:09 PM 35.4156 -111.3853 278° West 435 501 38,000 -885 Level Albuquerque Center
Sun 12:04:09 PM 35.4300 -111.5361 277° West 444 511 36,200 -2,537 Descending Albuquerque Center
Sun 12:05:12 PM 35.4456 -111.6842 277° West 442 509 32,800 -3,000 Descending Albuquerque Center
Sun 12:06:13 PM 35.4647 -111.8667 277° West 449 517 30,000 -1,388 Descending Albuquerque Center
Sun 12:07:13 PM 35.4806 -112.0233 277° West 458 527 30,000  Level Albuquerque Center
Sun 12:08:17 PM 35.4967 -112.1792 277° West 464 534 30,000  Level Albuquerque Center
Sun 12:09:10 PM 35.5097 -112.3069 277° West 470 541 30,000  Level Los Angeles Center
Sun 12:10:12 PM 35.5281 -112.4981 277° West 476 548 30,000  Level Los Angeles Center
Sun 12:11:14 PM 35.5422 -112.6472 277° West 473 544 30,000 -194 Level Los Angeles Center
Sun 12:12:16 PM 35.5578 -112.8086 277° West 475 547 29,600 -537 Descending Los Angeles Center
Sun 12:13:17 PM 35.5750 -112.9942 277° West 462 532 28,900 -585 Descending Los Angeles Center
Sun 12:14:19 PM 35.5864 -113.1192 276° West 461 531 28,400 -435 Descending Los Angeles Center
Sun 12:15:21 PM 35.6036 -113.3064 277° West 458 527 28,000 -488 Descending Los Angeles Center
Sun 12:16:22 PM 35.6150 -113.4333 276° West 462 532 27,400 -1,805 Descending Los Angeles Center
Sun 12:17:24 PM 35.6333 -113.6183 277° West 462 532 24,300 -2,855 Descending Los Angeles Center
Sun 12:18:26 PM 35.6556 -113.7686 280° West 449 517 21,500 -2,613 Descending Los Angeles Center
Sun 12:19:28 PM 35.6758 -113.9042 280° West 427 491 18,900 -2,710 Descending Los Angeles Center
Sun 12:20:30 PM 35.6983 -114.0653 280° West 405 466 15,900 -2,758 Descending Los Angeles Center
Sun 12:21:32 PM 35.7161 -114.1944 280° West 391 450 13,200 -1,842 Descending Los Angeles Center
Sun 12:22:24 PM 35.7333 -114.3047 281° West 360 414 12,400 -885 Descending Los Angeles Center
Sun 12:22:33 PM 35.7317 -114.3142 258° West 367 422 12,300 -507 Descending Los Angeles Center
Sun 12:23:35 PM 35.7717 -114.3961 301° West 319 367 11,800 -823 Descending Los Angeles Center
Sun 12:24:37 PM 35.8450 -114.4311 339° North 289 333 10,600 -1,297 Descending Los Angeles Center
Sun 12:25:26 PM 35.9142 -114.4642 339° North 281 323 9,400 -1,161 Descending Los Angeles Center
Sun 12:25:39 PM 35.9167 -114.4656 336° Northwest 281 323 9,400 -627 Level Los Angeles Center
Sun 12:26:33 PM 35.9869 -114.4981 339° North 242 278 8,700 -774 Descending Los Angeles Center
Sun 12:26:41 PM 35.9911 -114.5008 332° Northwest 247 284 8,600 -689 Descending Los Angeles Center
Sun 12:27:34 PM 36.0253 -114.5542 308° West 237 273 8,000 -581 Descending Los Angeles Center
Sun 12:27:43 PM 36.0253 -114.5611 270° West 232 267 8,000  Level Los Angeles Center
Sun 12:28:29 PM 36.0453 -114.6247 291° West 237 273 8,000  Level Los Angeles Center
Sun 12:28:44 PM 36.0478 -114.6383 283° West 236 272 8,000  Level Los Angeles Center
Sun 12:29:46 PM 36.0694 -114.7164 289° West 239 275 8,000 -435 Level Los Angeles Center
Sun 12:30:48 PM 36.0739 -114.7944 274° West 233 268 7,100 -857 Descending Los Angeles Center
Sun 12:31:31 PM 36.0736 -114.8603 270° West 226 260 6,500 -774 Descending Los Angeles Center
Sun 12:31:50 PM 36.0728 -114.8742 266° West 232 267 6,300 -1,377 Descending Los Angeles Center
Sun 12:32:32 PM 36.0739 -114.9400 271° West 216 249 5,100 -1,548 Descending Los Angeles Center
Sun 12:32:52 PM 36.0739 -114.9639 270° West 221 254 4,700 -1,200 Descending Los Angeles Center
Sun 12:33:27 PM 36.0728 -115.0044 268° West 198 228 4,000 -1,065 Descending Los Angeles Center
Sun 12:33:54 PM 36.0739 -115.0294 273° West 197 227 3,600 -806 Descending Los Angeles Center
Sun 12:34:34 PM 36.0747 -115.0622 272° West 139 160 3,100 -774 Descending Los Angeles Center
Sun 12:34:56 PM 36.0736 -115.0797 266° West 138 159 2,800 -800 Descending Los Angeles Center
Sun 12:35:34 PM 36.0739 -115.1078 271° West 139 160 2,300 -787 Descending Los Angeles Center
Sun 12:35:57 PM 36.0733 -115.1272 268° West 139 160 2,000 -783 Descending Los Angeles Center
Sun 12:37:00 PM 36.0667 -115.1500 270° West  Level FlightAware Approximate
Sun 12:44:00 PM 36.0801 -115.1523 270° West  Level Estimated

Login

Don't have an account? Register now (free) for customized features, flight alerts, and more!